createdAt,value
2023-02-02T00:01:37.914Z,100174.38
2023-02-02T00:04:41.680Z,100173.59
2023-02-02T00:07:44.782Z,100171.41
2023-02-02T00:10:48.718Z,100193.88
2023-02-02T00:13:52.180Z,100193.56
2023-02-02T00:16:56.971Z,100175.66
2023-02-02T00:20:00.008Z,100165.06
2023-02-02T00:23:05.845Z,100135.41
2023-02-02T00:26:10.085Z,100152.34
2023-02-02T00:29:24.557Z,100119.50
2023-02-02T00:32:27.745Z,100142.66
2023-02-02T00:35:31.285Z,100149.91
2023-02-02T00:38:34.850Z,100179.81
2023-02-02T00:41:38.528Z,100155.13
2023-02-02T00:45:00.270Z,100159.84
2023-02-02T00:48:04.150Z,100148.31
2023-02-02T00:51:08.974Z,100169.28
2023-02-02T00:54:14.392Z,100156.03
2023-02-02T00:57:17.736Z,100156.56
2023-02-02T01:00:24.108Z,100168.53
2023-02-02T01:03:27.403Z,100166.91
2023-02-02T01:06:31.034Z,100168.56
2023-02-02T01:09:34.530Z,100178.41
2023-02-02T01:12:38.715Z,100190.91
2023-02-02T01:15:41.912Z,100177.16
2023-02-02T01:18:46.784Z,100155.06
2023-02-02T01:21:51.447Z,100189.13
2023-02-02T01:24:56.498Z,100202.00
2023-02-02T01:27:59.750Z,100200.59
2023-02-02T01:31:22.779Z,100204.31
2023-02-02T01:34:25.980Z,100213.25
2023-02-02T01:37:29.580Z,100206.28
2023-02-02T01:40:33.134Z,100206.50
2023-02-02T01:43:45.672Z,100211.88
2023-02-02T01:46:48.878Z,100195.06
2023-02-02T01:49:54.132Z,100184.38
2023-02-02T01:53:00.926Z,100177.03
2023-02-02T01:56:08.488Z,100175.34
2023-02-02T01:59:14.128Z,100156.47
2023-02-02T02:02:17.985Z,100163.34
2023-02-02T02:05:35.178Z,100169.28
2023-02-02T02:08:47.543Z,100172.56
2023-02-02T02:11:54.448Z,100156.66
2023-02-02T02:15:16.971Z,100129.94
2023-02-02T02:18:40.082Z,100131.94
2023-02-02T02:22:12.343Z,100121.84
2023-02-02T02:25:44.942Z,100145.03
2023-02-02T02:29:10.908Z,100158.59
2023-02-02T02:32:39.242Z,100173.09
2023-02-02T02:35:49.731Z,100163.31
2023-02-02T02:39:18.780Z,100135.94
2023-02-02T02:42:27.045Z,100154.81
2023-02-02T02:45:32.107Z,100151.38
2023-02-02T02:48:35.429Z,100139.78
2023-02-02T02:51:52.419Z,100147.03
2023-02-02T02:54:58.014Z,100157.25
2023-02-02T02:58:13.803Z,100147.28
2023-02-02T03:01:38.295Z,100141.03
2023-02-02T03:04:55.992Z,100149.37
2023-02-02T03:08:08.922Z,100150.22
2023-02-02T03:11:14.481Z,100168.81
2023-02-02T03:14:17.888Z,100170.66
2023-02-02T03:17:21.670Z,100173.69
2023-02-02T03:20:24.865Z,100189.06
2023-02-02T03:23:28.585Z,100189.41
2023-02-02T03:26:32.610Z,100173.78
2023-02-02T03:29:37.325Z,100175.38
2023-02-02T03:32:41.675Z,100191.69
2023-02-02T03:35:45.667Z,100192.69
2023-02-02T03:38:49.093Z,100161.75
2023-02-02T03:41:52.561Z,100182.25
2023-02-02T03:44:55.677Z,100181.84
2023-02-02T03:47:59.302Z,100155.19
2023-02-02T03:51:09.596Z,100154.91
2023-02-02T03:54:14.174Z,100143.97
2023-02-02T03:57:17.359Z,100159.91
2023-02-02T04:00:21.488Z,100144.22
2023-02-02T04:03:24.943Z,100161.53
2023-02-02T04:06:28.196Z,100155.66
2023-02-02T04:09:31.956Z,100165.16
2023-02-02T04:12:36.094Z,100173.19
2023-02-02T04:15:39.440Z,100158.09
2023-02-02T04:18:43.317Z,100167.88
2023-02-02T04:21:46.899Z,100147.12
2023-02-02T04:24:49.928Z,100156.84
2023-02-02T04:27:53.467Z,100158.44
2023-02-02T04:30:57.545Z,100164.19
2023-02-02T04:34:01.477Z,100156.25
2023-02-02T04:37:04.655Z,100158.16
2023-02-02T04:40:08.848Z,100170.00
2023-02-02T04:43:12.498Z,100178.03
2023-02-02T04:46:16.718Z,100180.00
2023-02-02T04:49:19.977Z,100183.91
2023-02-02T04:52:23.492Z,100189.63
2023-02-02T04:55:26.922Z,100196.63
2023-02-02T04:58:30.573Z,100187.56
2023-02-02T05:01:34.915Z,100196.41
2023-02-02T05:04:38.322Z,100213.56
2023-02-02T05:07:42.172Z,100200.25
2023-02-02T05:10:45.624Z,100208.25
2023-02-02T05:13:53.533Z,100209.53
2023-02-02T05:16:56.955Z,100210.00
2023-02-02T05:20:00.703Z,100218.69
2023-02-02T05:23:04.274Z,100220.75
2023-02-02T05:26:07.570Z,100229.41
2023-02-02T05:29:11.477Z,100231.84
2023-02-02T05:32:14.676Z,100223.28
2023-02-02T05:35:18.197Z,100234.72
2023-02-02T05:38:21.835Z,100236.16
2023-02-02T05:41:25.382Z,100240.34
2023-02-02T05:44:28.589Z,100242.97
2023-02-02T05:47:32.142Z,100235.31
2023-02-02T05:50:35.336Z,100253.75
2023-02-02T05:53:39.920Z,100239.63
2023-02-02T05:56:43.307Z,100253.09
2023-02-02T05:59:47.441Z,100258.47
2023-02-02T06:02:50.501Z,100254.69
2023-02-02T06:05:54.839Z,100254.37
2023-02-02T06:08:57.898Z,100259.84
2023-02-02T06:12:01.442Z,100252.38
2023-02-02T06:15:06.259Z,100236.28
2023-02-02T06:18:10.173Z,100227.97
2023-02-02T06:21:13.346Z,100240.84
2023-02-02T06:24:16.857Z,100226.25
2023-02-02T06:27:21.262Z,100225.88
2023-02-02T06:30:25.862Z,100219.25
2023-02-02T06:33:28.939Z,100209.06
2023-02-02T06:36:32.348Z,100219.53
2023-02-02T06:39:35.720Z,100232.28
2023-02-02T06:42:39.260Z,100235.56
2023-02-02T06:45:42.281Z,100247.91
2023-02-02T06:48:47.038Z,100249.75
2023-02-02T06:51:51.542Z,100250.47
2023-02-02T06:54:55.241Z,100236.81
2023-02-02T06:58:00.101Z,100237.94
2023-02-02T07:01:09.640Z,100253.66
2023-02-02T07:04:14.380Z,100235.62
2023-02-02T07:07:17.897Z,100265.38
2023-02-02T07:11:11.079Z,100266.50
2023-02-02T07:13:46.229Z,100271.06
2023-02-02T07:16:49.397Z,100285.25
2023-02-02T07:19:52.797Z,100283.12
2023-02-02T07:22:56.211Z,100287.87
2023-02-02T07:26:08.709Z,100300.88
2023-02-02T07:29:15.108Z,100298.56
2023-02-02T07:32:18.490Z,100303.72
2023-02-02T07:35:21.945Z,100308.47
2023-02-02T07:38:25.632Z,100312.88
2023-02-02T07:41:29.108Z,100323.28
2023-02-02T07:44:32.523Z,100313.72
2023-02-02T07:47:36.720Z,100340.41
2023-02-02T07:50:40.220Z,100349.88
2023-02-02T07:53:49.649Z,100340.47
2023-02-02T07:56:54.227Z,100361.88
2023-02-02T07:59:57.469Z,100362.44
2023-02-02T08:03:01.557Z,100376.09
2023-02-02T08:06:23.526Z,100377.25
2023-02-02T08:09:26.661Z,100383.19
2023-02-02T08:12:30.080Z,100395.97
2023-02-02T08:15:33.270Z,100400.81
2023-02-02T08:18:38.567Z,100398.84
2023-02-02T08:21:41.720Z,100387.25
2023-02-02T08:24:45.498Z,100384.34
2023-02-02T08:27:49.928Z,100389.25
2023-02-02T08:30:53.554Z,100392.91
2023-02-02T08:33:58.748Z,100389.03
2023-02-02T08:37:04.146Z,100392.28
2023-02-02T08:40:09.627Z,100388.78
2023-02-02T08:43:16.512Z,100397.69
2023-02-02T08:46:21.395Z,100387.91
2023-02-02T08:49:26.124Z,100390.41
2023-02-02T08:52:29.289Z,100407.34
2023-02-02T08:55:32.862Z,100394.09
2023-02-02T08:58:36.341Z,100391.56
2023-02-02T09:01:41.045Z,100389.91
2023-02-02T09:04:45.666Z,100393.22
2023-02-02T09:07:49.446Z,100381.84
2023-02-02T09:10:52.866Z,100402.31
2023-02-02T09:13:58.551Z,100386.97
2023-02-02T09:17:01.871Z,100386.78
2023-02-02T09:20:06.787Z,100386.41
2023-02-02T09:23:10.134Z,100391.53
2023-02-02T09:26:23.087Z,100391.66
2023-02-02T09:29:26.182Z,100399.25
2023-02-02T09:32:29.664Z,100402.56
2023-02-02T09:35:32.954Z,100410.28
2023-02-02T09:38:37.731Z,100395.75
2023-02-02T09:41:41.080Z,100406.25
2023-02-02T09:44:46.081Z,100412.19
2023-02-02T09:47:55.992Z,100405.78
2023-02-02T09:51:05.541Z,100401.62
2023-02-02T09:54:22.204Z,100410.78
2023-02-02T09:57:31.605Z,100422.78
2023-02-02T10:00:39.934Z,100429.84
2023-02-02T10:04:04.070Z,100422.88
2023-02-02T10:07:21.144Z,100420.66
2023-02-02T10:10:29.575Z,100419.50
2023-02-02T10:13:37.922Z,100423.72
2023-02-02T10:16:41.621Z,100430.84
2023-02-02T10:19:45.244Z,100402.75
2023-02-02T10:22:51.005Z,100409.91
2023-02-02T10:26:14.124Z,100407.47
2023-02-02T10:29:24.876Z,100402.31
2023-02-02T10:33:01.320Z,100401.38
2023-02-02T10:36:46.927Z,100400.88
2023-02-02T10:40:10.494Z,100393.81
2023-02-02T10:43:46.486Z,100386.94
2023-02-02T10:46:52.775Z,100391.59
2023-02-02T10:50:15.919Z,100391.28
2023-02-02T10:53:19.759Z,100400.81
2023-02-02T10:56:39.813Z,100420.16
2023-02-02T11:00:06.047Z,100399.09
2023-02-02T11:03:16.152Z,100403.81
2023-02-02T11:06:38.892Z,100408.03
2023-02-02T11:09:43.069Z,100406.69
2023-02-02T11:12:53.195Z,100408.22
2023-02-02T11:16:16.778Z,100409.09
2023-02-02T11:19:20.632Z,100404.44
2023-02-02T11:22:38.561Z,100407.91
2023-02-02T11:25:43.724Z,100400.41
2023-02-02T11:28:49.583Z,100401.78
2023-02-02T11:31:52.768Z,100407.75
2023-02-02T11:35:02.888Z,100398.25
2023-02-02T11:38:06.570Z,100397.06
2023-02-02T11:41:13.922Z,100406.87
2023-02-02T11:44:28.416Z,100399.03
2023-02-02T11:47:34.028Z,100384.50
2023-02-02T11:50:37.200Z,100408.69
2023-02-02T11:53:47.506Z,100397.47
2023-02-02T11:56:53.464Z,100386.53
2023-02-02T12:00:18.243Z,100398.62
2023-02-02T12:03:35.543Z,100394.06
2023-02-02T12:06:39.193Z,100396.75
2023-02-02T12:09:42.738Z,100387.16
2023-02-02T12:13:13.396Z,100388.88
2023-02-02T12:16:26.276Z,100385.28
2023-02-02T12:19:52.325Z,100389.50
2023-02-02T12:23:54.877Z,100380.97
2023-02-02T12:27:14.667Z,100385.47
2023-02-02T12:30:30.690Z,100363.81
2023-02-02T12:33:47.405Z,100373.03
2023-02-02T12:37:03.541Z,100374.78
2023-02-02T12:40:44.506Z,100377.25
2023-02-02T12:43:53.613Z,100381.72
2023-02-02T12:47:28.377Z,100385.84
2023-02-02T12:50:43.575Z,100378.12
2023-02-02T12:54:34.304Z,100371.97
2023-02-02T12:57:40.369Z,100382.13
2023-02-02T13:01:09.584Z,100372.03
2023-02-02T13:08:36.751Z,100380.75
2023-02-02T13:11:50.643Z,100379.94
2023-02-02T13:15:02.768Z,100380.81
2023-02-02T13:18:15.801Z,100380.59
2023-02-02T13:21:22.800Z,100380.44
2023-02-02T13:24:37.228Z,100380.59
2023-02-02T13:27:41.432Z,100378.88
2023-02-02T13:30:47.689Z,100378.72
2023-02-02T13:34:19.465Z,100373.50
2023-02-02T13:37:37.397Z,100384.97
2023-02-02T13:40:43.708Z,100374.84
2023-02-02T13:44:36.840Z,100380.41
2023-02-02T13:47:49.973Z,100380.69
2023-02-02T13:51:02.085Z,100386.06
2023-02-02T13:54:44.811Z,100382.91
2023-02-02T13:57:57.710Z,100374.06
2023-02-02T14:01:05.794Z,100378.06
2023-02-02T14:04:21.855Z,100392.50
2023-02-02T14:07:43.360Z,100393.53
2023-02-02T14:10:52.560Z,100376.78
2023-02-02T14:14:20.307Z,100391.22
2023-02-02T14:17:23.431Z,100390.50
2023-02-02T14:20:41.447Z,100389.75
2023-02-02T14:23:53.293Z,100380.78
2023-02-02T14:26:58.551Z,100400.50
2023-02-02T14:30:21.169Z,100385.38
2023-02-02T14:33:39.010Z,100393.37
2023-02-02T14:36:56.073Z,100391.75
2023-02-02T14:40:11.030Z,100397.28
2023-02-02T14:43:44.955Z,100396.56
2023-02-02T14:46:49.463Z,100398.62
2023-02-02T14:49:58.106Z,100396.81
2023-02-02T14:53:13.459Z,100399.56
2023-02-02T14:56:18.242Z,100401.31
2023-02-02T14:59:27.521Z,100410.34
2023-02-02T15:02:36.329Z,100407.88
2023-02-02T15:05:46.239Z,100418.19
2023-02-02T15:09:26.676Z,100419.19
2023-02-02T15:12:59.157Z,100419.66
2023-02-02T15:16:14.149Z,100410.72
2023-02-02T15:19:33.378Z,100418.84
2023-02-02T15:23:08.297Z,100427.13
2023-02-02T15:26:20.285Z,100428.38
2023-02-02T15:29:44.180Z,100430.31
2023-02-02T15:32:48.933Z,100454.84
2023-02-02T15:35:54.775Z,100436.38
2023-02-02T15:39:27.053Z,100451.34
2023-02-02T15:42:53.965Z,100448.28
2023-02-02T15:46:05.884Z,100447.44
2023-02-02T15:49:35.067Z,100465.00
2023-02-02T15:52:47.245Z,100477.06
2023-02-02T15:55:52.720Z,100477.59
2023-02-02T15:59:00.745Z,100496.78
2023-02-02T16:02:07.451Z,100492.00
2023-02-02T16:05:29.803Z,100500.22
2023-02-02T16:08:34.475Z,100508.06
2023-02-02T16:11:41.975Z,100519.41
2023-02-02T16:14:50.865Z,100529.19
2023-02-02T16:18:13.638Z,100520.31
2023-02-02T16:21:24.149Z,100530.41
2023-02-02T16:24:39.004Z,100531.41
2023-02-02T16:27:46.614Z,100544.34
2023-02-02T16:30:53.881Z,100556.41
2023-02-02T16:33:59.839Z,100551.56
2023-02-02T16:37:12.655Z,100550.84
2023-02-02T16:40:26.830Z,100573.81
2023-02-02T16:43:31.047Z,100578.31
2023-02-02T16:46:49.755Z,100592.94
2023-02-02T16:49:54.879Z,100586.16
2023-02-02T16:53:05.163Z,100604.06
2023-02-02T16:56:10.192Z,100601.75
2023-02-02T16:59:24.402Z,100602.47
2023-02-02T17:02:35.213Z,100609.00
2023-02-02T17:05:49.696Z,100605.97
2023-02-02T17:08:53.207Z,100610.22
2023-02-02T17:12:03.241Z,100621.97
2023-02-02T17:15:29.272Z,100617.66
2023-02-02T17:18:32.954Z,100621.19
2023-02-02T17:21:37.198Z,100617.63
2023-02-02T17:24:47.743Z,100631.13
2023-02-02T17:27:54.913Z,100646.50
2023-02-02T17:31:10.920Z,100640.84
2023-02-02T17:34:15.598Z,100640.72
2023-02-02T17:37:19.577Z,100653.22
2023-02-02T17:40:24.267Z,100659.16
2023-02-02T17:43:29.109Z,100652.25
2023-02-02T17:46:35.554Z,100661.13
2023-02-02T17:49:39.591Z,100675.22
2023-02-02T17:52:45.850Z,100676.56
2023-02-02T17:55:51.577Z,100671.31
2023-02-02T17:58:55.945Z,100684.34
2023-02-02T18:01:59.743Z,100681.13
2023-02-02T18:05:05.063Z,100676.00
2023-02-02T18:08:11.336Z,100665.09
2023-02-02T18:11:16.470Z,100674.19
2023-02-02T18:14:20.536Z,100682.81
2023-02-02T18:17:24.473Z,100689.91
2023-02-02T18:20:29.746Z,100700.53
2023-02-02T18:23:33.632Z,100698.81
2023-02-02T18:26:38.813Z,100695.84
2023-02-02T18:29:43.557Z,100705.72
2023-02-02T18:32:49.394Z,100718.00
2023-02-02T18:35:53.820Z,100712.75
2023-02-02T18:39:01.044Z,100724.47
2023-02-02T18:42:05.871Z,100727.97
2023-02-02T18:45:11.011Z,100712.00
2023-02-02T18:48:17.744Z,100684.47
2023-02-02T18:51:22.464Z,100690.50
2023-02-02T18:54:28.987Z,100742.19
2023-02-02T18:57:33.340Z,100736.09
2023-02-02T19:00:38.488Z,100737.47
2023-02-02T19:03:43.657Z,100721.09
2023-02-02T19:07:07.551Z,100736.91
2023-02-02T19:10:12.251Z,100747.53
2023-02-02T19:13:20.482Z,100749.72
2023-02-02T19:16:28.473Z,100753.34
2023-02-02T19:19:36.431Z,100740.22
2023-02-02T19:22:42.722Z,100752.44
2023-02-02T19:25:51.796Z,100754.47
2023-02-02T19:29:03.128Z,100758.09
2023-02-02T19:32:31.563Z,100759.06
2023-02-02T19:35:39.249Z,100745.13
2023-02-02T19:38:45.547Z,100742.78
2023-02-02T19:42:02.357Z,100754.00
2023-02-02T19:45:33.581Z,100764.16
2023-02-02T19:48:39.306Z,100766.88
2023-02-02T19:51:47.755Z,100775.19
2023-02-02T19:54:53.185Z,100789.34
2023-02-02T19:58:12.780Z,100781.91
2023-02-02T20:01:22.060Z,100777.81
2023-02-02T20:04:29.360Z,100791.44
2023-02-02T20:07:35.598Z,100781.69
2023-02-02T20:10:44.186Z,100793.41
2023-02-02T20:13:49.094Z,100789.13
2023-02-02T20:16:57.909Z,100792.87
2023-02-02T20:20:01.921Z,100798.34
2023-02-02T20:23:40.339Z,100797.41
2023-02-02T20:26:45.965Z,100796.31
2023-02-02T20:29:55.004Z,100797.47
2023-02-02T20:33:03.127Z,100786.78
2023-02-02T20:36:35.333Z,100799.66
2023-02-02T20:40:23.346Z,100792.69
2023-02-02T20:43:27.107Z,100811.41
2023-02-02T20:46:30.969Z,100812.03
2023-02-02T20:49:37.403Z,100793.94
2023-02-02T20:52:42.665Z,100813.69
2023-02-02T20:55:47.073Z,100802.13
2023-02-02T20:58:52.263Z,100807.66
2023-02-02T21:01:56.274Z,100799.09
2023-02-02T21:05:01.582Z,100818.00
2023-02-02T21:08:07.098Z,100827.53
2023-02-02T21:11:10.678Z,100856.12
2023-02-02T21:14:15.634Z,100850.19
2023-02-02T21:17:19.297Z,100856.41
2023-02-02T21:20:23.366Z,100861.41
2023-02-02T21:23:26.632Z,100864.25
2023-02-02T21:26:30.922Z,100869.31
2023-02-02T21:29:34.896Z,100866.06
2023-02-02T21:32:38.700Z,100850.59
2023-02-02T21:35:43.964Z,100870.94
2023-02-02T21:38:47.307Z,100890.78
2023-02-02T21:42:01.081Z,100860.78
2023-02-02T21:45:31.400Z,100898.72
2023-02-02T21:48:38.892Z,100874.97
2023-02-02T21:51:43.099Z,100907.00
2023-02-02T21:54:48.426Z,100899.59
2023-02-02T21:57:51.599Z,100914.28
2023-02-02T22:00:59.879Z,100924.94
2023-02-02T22:04:03.516Z,100931.22
2023-02-02T22:07:15.824Z,100934.12
2023-02-02T22:10:40.120Z,100932.28
2023-02-02T22:13:43.273Z,100935.28
2023-02-02T22:16:55.116Z,100939.88
2023-02-02T22:20:07.818Z,100912.66
2023-02-02T22:23:20.927Z,100940.72
2023-02-02T22:26:33.388Z,100936.34
2023-02-02T22:29:36.866Z,100948.47
2023-02-02T22:32:39.957Z,100958.31
2023-02-02T22:35:43.937Z,100966.13
2023-02-02T22:38:46.984Z,100973.47
2023-02-02T22:41:50.429Z,100970.53
2023-02-02T22:44:53.514Z,100977.78
2023-02-02T22:47:56.952Z,100978.75
2023-02-02T22:51:01.036Z,100982.22
2023-02-02T22:54:04.377Z,100981.09
2023-02-02T22:57:08.095Z,100995.47
2023-02-02T23:00:17.740Z,100984.53
2023-02-02T23:03:21.245Z,100996.91
2023-02-02T23:06:25.053Z,100983.56
2023-02-02T23:09:28.314Z,101011.97
2023-02-02T23:12:31.768Z,101001.56
2023-02-02T23:15:35.156Z,100992.81
2023-02-02T23:18:38.884Z,101006.09
2023-02-02T23:21:42.040Z,100993.56
2023-02-02T23:24:45.357Z,101022.56
2023-02-02T23:27:48.655Z,101023.63
2023-02-02T23:30:54.742Z,101018.00
2023-02-02T23:33:58.462Z,101040.22
2023-02-02T23:37:02.102Z,101041.69
2023-02-02T23:40:06.013Z,101042.56
2023-02-02T23:43:09.461Z,101048.97
2023-02-02T23:46:12.812Z,101046.59
2023-02-02T23:49:17.659Z,101058.16
2023-02-02T23:52:22.299Z,101072.06
2023-02-02T23:55:26.018Z,101063.41
2023-02-02T23:58:29.635Z,101063.13
